createdAt,value
2019-05-14T00:01:47.304Z,48.70
2019-05-14T00:04:15.836Z,49.20
2019-05-14T00:06:44.314Z,49.30
2019-05-14T00:09:12.855Z,50.10
2019-05-14T00:11:42.153Z,49.40
2019-05-14T00:14:11.611Z,49.70
2019-05-14T00:16:42.371Z,49.90
2019-05-14T00:19:11.308Z,50.40
2019-05-14T00:21:42.139Z,51.30
2019-05-14T00:24:11.352Z,51.50
2019-05-14T00:26:42.308Z,52.40
2019-05-14T00:29:11.404Z,52.10
2019-05-14T00:31:41.793Z,51.80
2019-05-14T00:34:11.210Z,52.00
2019-05-14T00:36:41.666Z,51.90
2019-05-14T00:39:11.272Z,53.30
2019-05-14T00:41:42.098Z,53.10
2019-05-14T00:44:10.217Z,52.90
2019-05-14T00:46:40.953Z,52.90
2019-05-14T00:49:08.949Z,52.90
2019-05-14T00:51:37.744Z,52.90
2019-05-14T00:54:06.297Z,53.00
2019-05-14T00:56:34.833Z,53.00
2019-05-14T00:59:03.462Z,53.10
2019-05-14T01:01:32.012Z,53.40
2019-05-14T01:04:01.311Z,54.20
2019-05-14T01:06:31.510Z,54.10
2019-05-14T01:09:01.371Z,54.70
2019-05-14T01:11:31.510Z,54.70
2019-05-14T01:14:01.667Z,54.90
2019-05-14T01:16:31.744Z,55.60
2019-05-14T01:19:02.106Z,55.40
2019-05-14T01:21:31.227Z,55.70
2019-05-14T01:24:01.859Z,55.50
2019-05-14T01:26:31.038Z,55.30
2019-05-14T01:29:01.463Z,55.30
2019-05-14T01:31:31.476Z,55.50
2019-05-14T01:34:02.094Z,55.80
2019-05-14T01:36:32.016Z,56.10
2019-05-14T01:39:01.757Z,57.40
2019-05-14T01:41:31.692Z,57.80
2019-05-14T01:44:01.724Z,58.40
2019-05-14T01:46:31.636Z,57.80
2019-05-14T01:49:01.507Z,57.70
2019-05-14T01:51:31.583Z,57.60
2019-05-14T01:54:01.473Z,58.00
2019-05-14T01:56:31.932Z,57.90
2019-05-14T01:59:01.731Z,58.90
2019-05-14T02:01:31.642Z,58.80
2019-05-14T02:04:02.260Z,58.70
2019-05-14T02:06:31.819Z,58.60
2019-05-14T02:09:01.976Z,58.80
2019-05-14T02:11:32.099Z,60.10
2019-05-14T02:14:02.392Z,59.20
2019-05-14T02:16:31.446Z,59.70
2019-05-14T02:19:01.357Z,59.70
2019-05-14T02:21:31.768Z,60.10
2019-05-14T02:24:01.994Z,60.10
2019-05-14T02:26:31.538Z,60.40
2019-05-14T02:29:01.960Z,60.50
2019-05-14T02:31:30.688Z,61.00
2019-05-14T02:33:59.328Z,61.50
2019-05-14T02:36:30.802Z,63.00
2019-05-14T02:39:00.445Z,63.80
2019-05-14T02:41:29.858Z,65.00
2019-05-14T02:43:59.301Z,65.60
2019-05-14T02:46:29.555Z,65.70
2019-05-14T02:48:59.460Z,65.80
2019-05-14T02:51:29.995Z,66.60
2019-05-14T02:53:59.244Z,67.10
2019-05-14T02:56:29.522Z,67.40
2019-05-14T02:59:00.005Z,67.50
2019-05-14T03:01:30.168Z,67.50
2019-05-14T03:03:59.843Z,67.70
2019-05-14T03:06:29.309Z,68.50
2019-05-14T03:08:59.910Z,70.40
2019-05-14T03:11:29.639Z,70.60
2019-05-14T03:13:59.843Z,70.80
2019-05-14T03:16:32.542Z,71.20
2019-05-14T03:18:59.699Z,72.10
2019-05-14T03:21:30.433Z,72.20
2019-05-14T03:24:00.749Z,74.80
2019-05-14T03:26:29.667Z,75.60
2019-05-14T03:29:00.081Z,77.70
2019-05-14T03:31:32.948Z,78.80
2019-05-14T03:34:03.102Z,80.30
2019-05-14T03:36:34.894Z,81.50
2019-05-14T03:38:59.619Z,82.90
2019-05-14T03:41:30.542Z,84.30
2019-05-14T03:44:00.098Z,85.30
2019-05-14T03:46:44.152Z,86.30
2019-05-14T03:49:00.063Z,88.20
2019-05-14T03:51:29.796Z,90.10
2019-05-14T03:54:05.854Z,90.50
2019-05-14T03:56:29.927Z,90.90
2019-05-14T03:58:59.937Z,91.20
2019-05-14T04:01:29.826Z,91.10
2019-05-14T04:03:59.366Z,92.20
2019-05-14T04:06:30.113Z,92.50
2019-05-14T04:09:00.728Z,92.50
2019-05-14T04:11:31.226Z,92.50
2019-05-14T04:14:02.966Z,92.50
2019-05-14T04:16:33.901Z,92.60
2019-05-14T04:19:02.824Z,92.60
2019-05-14T04:21:32.626Z,92.50
2019-05-14T04:24:03.810Z,92.50
2019-05-14T04:26:53.177Z,93.00
2019-05-14T04:29:10.103Z,92.80
2019-05-14T04:31:39.901Z,93.30
2019-05-14T04:34:10.680Z,93.50
2019-05-14T04:36:39.366Z,93.70
2019-05-14T04:39:09.422Z,93.80
2019-05-14T04:41:39.384Z,93.80
2019-05-14T04:44:09.771Z,93.60
2019-05-14T04:46:39.466Z,93.50
2019-05-14T04:49:09.644Z,92.90
2019-05-14T04:51:39.680Z,92.30
2019-05-14T04:54:09.619Z,92.10
2019-05-14T04:56:39.873Z,91.60
2019-05-14T04:59:10.466Z,91.90
2019-05-14T05:01:40.199Z,92.10
2019-05-14T05:04:09.688Z,92.20
2019-05-14T05:06:39.737Z,91.90
2019-05-14T05:09:09.588Z,92.00
2019-05-14T05:11:39.390Z,91.30
2019-05-14T05:14:08.938Z,91.10
2019-05-14T05:16:39.305Z,90.70
2019-05-14T05:19:10.411Z,89.80
2019-05-14T05:21:38.899Z,88.50
2019-05-14T05:24:09.161Z,89.40
2019-05-14T05:26:39.209Z,89.30
2019-05-14T05:29:10.401Z,89.50
2019-05-14T05:31:38.279Z,89.60
2019-05-14T05:34:08.906Z,86.10
2019-05-14T05:36:38.076Z,84.50
2019-05-14T05:39:08.599Z,84.60
2019-05-14T05:41:38.484Z,83.90
2019-05-14T05:44:08.159Z,82.10
2019-05-14T05:46:38.855Z,82.10
2019-05-14T05:49:08.068Z,81.90
2019-05-14T05:51:39.083Z,82.60
2019-05-14T05:54:09.082Z,81.70
2019-05-14T05:56:38.773Z,82.40
2019-05-14T05:59:09.563Z,81.20
2019-05-14T06:01:44.915Z,80.20
2019-05-14T06:04:08.701Z,80.90
2019-05-14T06:06:39.072Z,79.40
2019-05-14T06:09:08.893Z,79.70
2019-05-14T06:11:38.130Z,78.90
2019-05-14T06:14:08.292Z,78.90
2019-05-14T06:16:38.515Z,78.70
2019-05-14T06:19:08.256Z,77.70
2019-05-14T06:21:39.533Z,76.60
2019-05-14T06:24:09.053Z,76.30
2019-05-14T06:26:38.455Z,75.70
2019-05-14T06:29:08.413Z,75.50
2019-05-14T06:31:38.698Z,75.20
2019-05-14T06:34:09.526Z,73.70
2019-05-14T06:36:39.527Z,74.70
2019-05-14T06:39:09.195Z,73.50
2019-05-14T06:41:42.590Z,73.20
2019-05-14T06:44:09.189Z,72.80
2019-05-14T06:46:39.118Z,74.30
2019-05-14T06:49:09.110Z,72.00
2019-05-14T06:51:39.481Z,71.80
2019-05-14T06:54:09.224Z,71.70
2019-05-14T06:56:38.539Z,70.80
2019-05-14T06:59:09.031Z,70.10
2019-05-14T07:01:38.427Z,69.60
2019-05-14T07:04:08.857Z,70.30
2019-05-14T07:06:39.107Z,71.10
2019-05-14T07:09:08.330Z,69.60
2019-05-14T07:11:38.827Z,70.90
2019-05-14T07:14:11.214Z,69.70
2019-05-14T07:16:39.042Z,70.10
2019-05-14T07:19:09.461Z,69.20
2019-05-14T07:21:38.397Z,69.30
2019-05-14T07:24:08.780Z,69.10
2019-05-14T07:26:38.815Z,69.50
2019-05-14T07:29:11.524Z,70.30
2019-05-14T07:31:38.555Z,67.20
2019-05-14T07:34:08.969Z,66.40
2019-05-14T07:36:38.667Z,66.30
2019-05-14T07:39:09.414Z,66.40
2019-05-14T07:41:39.107Z,66.10
2019-05-14T07:44:09.287Z,67.90
2019-05-14T07:46:38.975Z,66.60
2019-05-14T07:49:10.979Z,64.70
2019-05-14T07:51:38.806Z,64.80
2019-05-14T07:54:08.319Z,66.10
2019-05-14T07:56:38.461Z,64.90
2019-05-14T07:59:08.940Z,64.20
2019-05-14T08:01:38.865Z,64.00
2019-05-14T08:04:11.057Z,64.00
2019-05-14T08:06:39.379Z,65.20
2019-05-14T08:09:09.444Z,66.20
2019-05-14T08:11:38.806Z,66.10
2019-05-14T08:14:09.039Z,66.30
2019-05-14T08:16:38.125Z,65.50
2019-05-14T08:19:20.869Z,63.10
2019-05-14T08:21:38.698Z,65.70
2019-05-14T08:24:08.866Z,64.00
2019-05-14T08:26:38.189Z,66.90
2019-05-14T08:29:08.640Z,64.60
2019-05-14T08:31:38.325Z,63.80
2019-05-14T08:34:09.197Z,62.80
2019-05-14T08:36:37.982Z,63.10
2019-05-14T08:39:08.831Z,64.10
2019-05-14T08:41:38.463Z,64.40
2019-05-14T08:44:08.524Z,58.20
2019-05-14T08:46:38.910Z,58.50
2019-05-14T08:49:08.991Z,58.50
2019-05-14T08:51:38.839Z,57.60
2019-05-14T08:54:08.206Z,54.30
2019-05-14T08:56:38.947Z,51.70
2019-05-14T08:59:08.713Z,53.80
2019-05-14T09:01:38.728Z,54.60
2019-05-14T09:04:08.996Z,53.60
2019-05-14T09:06:38.507Z,53.40
2019-05-14T09:09:09.473Z,52.70
2019-05-14T09:11:44.574Z,55.00
2019-05-14T09:14:10.859Z,55.40
2019-05-14T09:16:46.475Z,56.80
2019-05-14T09:19:08.865Z,55.20
2019-05-14T09:21:39.839Z,55.00
2019-05-14T09:24:09.549Z,55.30
2019-05-14T09:26:39.041Z,54.80
2019-05-14T09:29:19.611Z,56.00
2019-05-14T09:31:39.103Z,55.50
2019-05-14T09:34:09.169Z,55.70
2019-05-14T09:36:39.520Z,54.20
2019-05-14T09:39:11.846Z,52.00
2019-05-14T09:41:38.882Z,46.10
2019-05-14T09:44:09.308Z,46.50
2019-05-14T09:46:38.506Z,49.60
2019-05-14T09:49:08.031Z,47.80
2019-05-14T09:51:38.401Z,44.40
2019-05-14T09:54:08.615Z,45.40
2019-05-14T09:56:39.540Z,46.80
2019-05-14T09:59:09.192Z,48.70
2019-05-14T10:01:38.361Z,48.80
2019-05-14T10:04:09.030Z,45.60
2019-05-14T10:06:39.246Z,47.00
2019-05-14T10:09:08.545Z,44.60
2019-05-14T10:11:38.390Z,44.80
2019-05-14T10:14:08.029Z,44.90
2019-05-14T10:16:38.536Z,45.20
2019-05-14T10:19:06.861Z,44.60
2019-05-14T10:21:35.424Z,42.70
2019-05-14T10:24:03.956Z,43.00
2019-05-14T10:26:32.539Z,41.80
2019-05-14T10:29:01.070Z,41.80
2019-05-14T10:31:29.609Z,42.50
2019-05-14T10:33:58.866Z,44.10
2019-05-14T10:36:29.808Z,42.80
2019-05-14T10:38:58.799Z,43.00
2019-05-14T10:41:29.151Z,42.00
2019-05-14T10:43:58.925Z,40.80
2019-05-14T10:46:29.102Z,42.20
2019-05-14T10:48:58.662Z,43.30
2019-05-14T10:51:28.400Z,44.30
2019-05-14T10:53:59.477Z,44.70
2019-05-14T10:56:29.543Z,44.50
2019-05-14T10:58:58.389Z,42.00
2019-05-14T11:01:28.454Z,43.70
2019-05-14T11:03:57.288Z,44.60
2019-05-14T11:06:25.816Z,43.80
2019-05-14T11:08:54.295Z,42.10
2019-05-14T11:11:22.833Z,42.40
2019-05-14T11:13:51.435Z,40.00
2019-05-14T11:16:19.973Z,42.00
2019-05-14T11:18:49.775Z,40.40
2019-05-14T11:21:25.638Z,40.70
2019-05-14T11:23:49.193Z,41.50
2019-05-14T11:26:18.583Z,44.00
2019-05-14T11:28:49.225Z,42.30
2019-05-14T11:31:19.094Z,41.60
2019-05-14T11:33:49.669Z,41.60
2019-05-14T11:36:18.855Z,41.80
2019-05-14T11:38:50.456Z,41.80
2019-05-14T11:41:18.612Z,41.30
2019-05-14T11:43:49.193Z,41.70
2019-05-14T11:46:24.986Z,42.20
2019-05-14T11:48:48.938Z,40.40
2019-05-14T11:51:20.670Z,41.20
2019-05-14T11:53:49.393Z,40.80
2019-05-14T11:56:19.422Z,39.20
2019-05-14T11:58:48.361Z,36.70
2019-05-14T12:01:18.936Z,37.60
2019-05-14T12:03:49.952Z,36.00
2019-05-14T12:06:18.654Z,36.30
2019-05-14T12:08:47.396Z,36.70
2019-05-14T12:11:18.538Z,37.30
2019-05-14T12:13:48.447Z,35.60
2019-05-14T12:16:16.348Z,36.70
2019-05-14T12:18:44.959Z,38.90
2019-05-14T12:21:13.548Z,39.60
2019-05-14T12:23:42.022Z,40.30
2019-05-14T12:26:10.576Z,40.70
2019-05-14T12:28:39.295Z,38.60
2019-05-14T12:31:09.234Z,38.40
2019-05-14T12:33:39.552Z,38.40
2019-05-14T12:36:10.144Z,35.80
2019-05-14T12:38:39.050Z,36.70
2019-05-14T12:41:09.272Z,36.80
2019-05-14T12:43:39.770Z,33.80
2019-05-14T12:46:10.335Z,33.20
2019-05-14T12:48:39.130Z,33.70
2019-05-14T12:51:08.989Z,32.70
2019-05-14T12:53:39.442Z,34.00
2019-05-14T12:56:08.654Z,33.60
2019-05-14T12:58:42.861Z,32.70
2019-05-14T13:03:37.675Z,32.80
2019-05-14T13:06:06.390Z,33.90
2019-05-14T13:08:38.635Z,34.00
2019-05-14T13:11:09.338Z,31.40
2019-05-14T13:13:42.267Z,31.60
2019-05-14T13:16:07.304Z,30.30
2019-05-14T13:18:38.440Z,29.40
2019-05-14T13:21:06.192Z,29.50
2019-05-14T13:23:34.786Z,30.50
2019-05-14T13:26:03.320Z,30.30
2019-05-14T13:28:31.885Z,30.90
2019-05-14T13:31:00.420Z,30.60
2019-05-14T13:33:28.908Z,30.40
2019-05-14T13:35:59.366Z,30.50
2019-05-14T13:38:27.649Z,31.60
2019-05-14T13:40:56.193Z,32.10
2019-05-14T13:43:24.744Z,31.70
2019-05-14T13:45:53.309Z,31.00
2019-05-14T13:48:21.778Z,28.10
2019-05-14T13:50:50.351Z,26.90
2019-05-14T13:53:19.163Z,27.00
2019-05-14T13:55:56.803Z,27.00
2019-05-14T13:58:20.787Z,26.30
2019-05-14T14:00:51.568Z,27.30
2019-05-14T14:03:20.010Z,27.90
2019-05-14T14:05:49.729Z,29.70
2019-05-14T14:08:19.284Z,29.60
2019-05-14T14:10:53.085Z,30.30
2019-05-14T14:13:19.857Z,30.00
2019-05-14T14:15:48.908Z,28.50
2019-05-14T14:18:21.050Z,28.30
2019-05-14T14:20:48.958Z,27.00
2019-05-14T14:23:25.592Z,26.50
2019-05-14T14:25:53.549Z,27.10
2019-05-14T14:28:18.276Z,27.30
2019-05-14T14:30:49.218Z,28.20
2019-05-14T14:33:18.492Z,27.80
2019-05-14T14:35:48.592Z,28.00
2019-05-14T14:38:19.751Z,30.00
2019-05-14T14:40:48.617Z,30.20
2019-05-14T14:43:18.767Z,30.20
2019-05-14T14:45:50.866Z,28.90
2019-05-14T14:48:20.399Z,28.60
2019-05-14T14:50:49.866Z,28.70
2019-05-14T14:53:21.853Z,28.70
2019-05-14T14:55:49.798Z,30.50
2019-05-14T14:58:19.978Z,31.10
2019-05-14T15:00:48.941Z,33.40
2019-05-14T15:03:21.238Z,33.20
2019-05-14T15:05:49.892Z,32.40
2019-05-14T15:08:20.096Z,30.00
2019-05-14T15:10:48.739Z,27.50
2019-05-14T15:13:17.296Z,27.90
2019-05-14T15:15:45.867Z,27.00
2019-05-14T15:18:14.723Z,27.50
2019-05-14T15:20:43.286Z,28.20
2019-05-14T15:23:11.945Z,29.20
2019-05-14T15:25:40.483Z,30.10
2019-05-14T15:28:09.538Z,31.70
2019-05-14T15:30:39.566Z,32.60
2019-05-14T15:33:09.168Z,32.40
2019-05-14T15:35:37.860Z,31.90
2019-05-14T15:38:11.142Z,31.10
2019-05-14T15:40:40.046Z,30.00
2019-05-14T15:43:09.847Z,29.90
2019-05-14T15:45:38.569Z,31.40
2019-05-14T15:48:08.903Z,31.10
2019-05-14T15:50:38.835Z,29.70
2019-05-14T15:53:10.871Z,29.90
2019-05-14T15:55:38.385Z,29.70
2019-05-14T15:58:08.786Z,30.10
2019-05-14T16:00:38.555Z,32.00
2019-05-14T16:03:08.547Z,32.40
2019-05-14T16:05:39.399Z,31.70
2019-05-14T16:08:07.769Z,30.00
2019-05-14T16:10:39.860Z,31.40
2019-05-14T16:13:08.812Z,31.90
2019-05-14T16:15:38.992Z,33.20
2019-05-14T16:18:15.443Z,34.20
2019-05-14T16:20:39.172Z,34.80
2019-05-14T16:23:10.904Z,35.00
2019-05-14T16:25:39.066Z,36.10
2019-05-14T16:28:08.819Z,37.90
2019-05-14T16:30:40.076Z,37.10
2019-05-14T16:33:09.325Z,35.00
2019-05-14T16:35:39.278Z,32.60
2019-05-14T16:38:08.455Z,31.50
2019-05-14T16:40:39.581Z,29.90
2019-05-14T16:43:07.194Z,29.20
2019-05-14T16:45:35.829Z,28.20
2019-05-14T16:48:04.381Z,27.50
2019-05-14T16:50:32.942Z,28.50
2019-05-14T16:53:01.477Z,28.60
2019-05-14T16:55:30.827Z,29.10
2019-05-14T16:57:59.416Z,30.00
2019-05-14T17:00:29.432Z,31.10
2019-05-14T17:02:58.954Z,32.10
2019-05-14T17:05:29.923Z,33.50
2019-05-14T17:07:58.730Z,33.40
2019-05-14T17:10:28.586Z,34.60
2019-05-14T17:13:01.387Z,35.80
2019-05-14T17:15:28.808Z,36.20
2019-05-14T17:17:59.661Z,35.10
2019-05-14T17:20:27.885Z,34.60
2019-05-14T17:22:56.448Z,33.20
2019-05-14T17:25:27.939Z,30.50
2019-05-14T17:27:55.956Z,30.60
2019-05-14T17:30:24.485Z,29.70
2019-05-14T17:32:53.040Z,29.10
2019-05-14T17:35:21.495Z,28.50
2019-05-14T17:37:50.076Z,28.30
2019-05-14T17:40:20.327Z,28.40
2019-05-14T17:42:48.867Z,29.40
2019-05-14T17:45:17.494Z,29.10
2019-05-14T17:47:46.030Z,29.80
2019-05-14T17:50:14.737Z,30.60
2019-05-14T17:52:45.248Z,30.90
2019-05-14T17:55:13.869Z,31.10
2019-05-14T17:57:47.462Z,29.70
2019-05-14T18:00:13.523Z,29.90
2019-05-14T18:02:41.987Z,30.10
2019-05-14T18:05:10.700Z,30.40
2019-05-14T18:07:39.320Z,30.00
2019-05-14T18:10:09.007Z,29.60
2019-05-14T18:12:39.692Z,29.60
2019-05-14T18:15:08.735Z,29.90
2019-05-14T18:17:39.298Z,30.60
2019-05-14T18:20:08.450Z,30.90
2019-05-14T18:22:42.203Z,31.10
2019-05-14T18:25:09.279Z,31.80
2019-05-14T18:27:39.263Z,32.70
2019-05-14T18:30:09.363Z,33.60
2019-05-14T18:32:38.015Z,34.10
2019-05-14T18:35:07.158Z,34.30
2019-05-14T18:37:35.763Z,34.60
2019-05-14T18:40:09.040Z,35.50
2019-05-14T18:42:39.032Z,35.70
2019-05-14T18:45:08.654Z,37.00
2019-05-14T18:47:39.794Z,38.00
2019-05-14T18:50:09.131Z,39.30
2019-05-14T18:52:39.983Z,40.20
2019-05-14T18:55:08.604Z,41.00
2019-05-14T18:57:38.230Z,41.90
2019-05-14T19:00:08.565Z,42.10
2019-05-14T19:02:39.269Z,42.70
2019-05-14T19:05:08.598Z,43.40
2019-05-14T19:07:39.537Z,43.80
2019-05-14T19:10:09.309Z,44.50
2019-05-14T19:12:38.742Z,44.60
2019-05-14T19:15:08.903Z,45.00
2019-05-14T19:17:38.656Z,45.30
2019-05-14T19:20:08.679Z,45.60
2019-05-14T19:22:39.643Z,46.10
2019-05-14T19:25:08.512Z,46.60
2019-05-14T19:27:38.005Z,46.50
2019-05-14T19:30:08.489Z,47.00
2019-05-14T19:32:39.261Z,47.30
2019-05-14T19:35:08.629Z,47.60
2019-05-14T19:37:39.140Z,48.00
2019-05-14T19:40:09.199Z,48.20
2019-05-14T19:42:39.225Z,48.90
2019-05-14T19:45:08.707Z,48.80
2019-05-14T19:47:39.759Z,49.20
2019-05-14T19:50:09.266Z,49.10
2019-05-14T19:52:38.996Z,49.20
2019-05-14T19:55:08.142Z,49.40
2019-05-14T19:57:38.330Z,49.30
2019-05-14T20:00:09.361Z,49.20
2019-05-14T20:02:38.286Z,49.30
2019-05-14T20:05:08.947Z,49.70
2019-05-14T20:07:39.005Z,49.50
2019-05-14T20:10:08.785Z,49.50
2019-05-14T20:12:45.088Z,49.90
2019-05-14T20:15:14.982Z,50.30
2019-05-14T20:17:45.756Z,50.90
2019-05-14T20:20:14.541Z,51.40
2019-05-14T20:22:43.193Z,51.20
2019-05-14T20:25:13.617Z,51.30
2019-05-14T20:27:42.256Z,52.30
2019-05-14T20:30:11.463Z,52.60
2019-05-14T20:32:40.088Z,53.00
2019-05-14T20:35:09.639Z,53.60
2019-05-14T20:37:38.971Z,54.10
2019-05-14T20:40:09.554Z,54.00
2019-05-14T20:42:39.323Z,54.30
2019-05-14T20:45:08.630Z,54.70
2019-05-14T20:47:38.997Z,55.20
2019-05-14T20:50:09.002Z,55.70
2019-05-14T20:52:37.909Z,56.00
2019-05-14T20:55:09.471Z,56.40
2019-05-14T20:57:38.551Z,56.70
2019-05-14T21:00:11.382Z,57.30
2019-05-14T21:02:39.584Z,57.20
2019-05-14T21:05:13.436Z,57.60
2019-05-14T21:07:38.894Z,58.40
2019-05-14T21:10:08.021Z,58.80
2019-05-14T21:12:39.129Z,58.50
2019-05-14T21:15:10.122Z,59.20
2019-05-14T21:17:39.112Z,59.00
2019-05-14T21:20:09.033Z,59.40
2019-05-14T21:22:40.218Z,59.90
2019-05-14T21:25:11.284Z,60.40
2019-05-14T21:27:48.090Z,60.80
2019-05-14T21:30:09.484Z,60.90
2019-05-14T21:32:39.187Z,61.00
2019-05-14T21:35:08.435Z,61.00
2019-05-14T21:37:39.231Z,61.10
2019-05-14T21:40:09.227Z,61.50
2019-05-14T21:42:38.533Z,61.30
2019-05-14T21:45:09.778Z,61.70
2019-05-14T21:47:38.778Z,61.60
2019-05-14T21:50:09.105Z,62.20
2019-05-14T21:52:39.290Z,62.80
2019-05-14T21:55:08.938Z,62.90
2019-05-14T21:57:38.197Z,63.60
2019-05-14T22:00:29.453Z,64.00
2019-05-14T22:02:58.422Z,64.10
2019-05-14T22:05:28.408Z,64.50
2019-05-14T22:07:57.973Z,64.90
2019-05-14T22:10:28.807Z,65.20
2019-05-14T22:12:58.345Z,65.10
2019-05-14T22:15:29.071Z,65.00
2019-05-14T22:17:58.719Z,65.10
2019-05-14T22:20:28.904Z,65.10
2019-05-14T22:22:59.117Z,65.90
2019-05-14T22:25:28.443Z,66.40
2019-05-14T22:28:10.668Z,65.90
2019-05-14T22:30:28.985Z,66.20
2019-05-14T22:33:00.330Z,67.00
2019-05-14T22:35:30.946Z,67.20
2019-05-14T22:37:59.688Z,67.90
2019-05-14T22:40:29.216Z,68.20
2019-05-14T22:43:00.105Z,68.30
2019-05-14T22:45:28.397Z,68.90
2019-05-14T22:47:58.926Z,70.40
2019-05-14T22:50:29.305Z,70.80
2019-05-14T22:52:58.434Z,71.20
2019-05-14T22:55:29.030Z,72.20
2019-05-14T22:57:59.318Z,73.10
2019-05-14T23:00:28.517Z,73.30
2019-05-14T23:02:57.546Z,73.90
2019-05-14T23:05:26.014Z,74.50
2019-05-14T23:07:54.571Z,75.70
2019-05-14T23:10:23.040Z,75.40
2019-05-14T23:12:51.503Z,75.80
2019-05-14T23:15:20.083Z,76.40
2019-05-14T23:17:48.667Z,76.80
2019-05-14T23:20:19.369Z,78.20
2019-05-14T23:22:49.210Z,79.20
2019-05-14T23:25:18.551Z,80.80
2019-05-14T23:27:48.142Z,81.90
2019-05-14T23:30:19.979Z,83.40
2019-05-14T23:32:49.138Z,84.00
2019-05-14T23:35:18.872Z,84.40
2019-05-14T23:37:48.840Z,85.80
2019-05-14T23:40:17.830Z,86.10
2019-05-14T23:42:48.764Z,87.00
2019-05-14T23:45:18.800Z,87.70
2019-05-14T23:47:49.016Z,88.20
2019-05-14T23:50:17.111Z,88.90
2019-05-14T23:52:45.673Z,89.00
2019-05-14T23:55:14.270Z,89.30
2019-05-14T23:57:42.762Z,89.90
